Rocky Mountain Metropolitan Airport
KBJC : rendu visible

Aérodrome :











RETROUVEZ-NOUS SUR...

 
LOGIN :

S'inscrire | Disclaimer

   EN    FR    IT 

 









Légende :    VFR   VFR Marginal   IFR   IFR Intensif   IFR Très Intensif
Visi : 
Plafond : 
>= 8 km
>= 3000ft
5 à 8 km
1000 à 3000 ft
1500m à 5 km
500 à 1000 ft
800 à 1500m
200 à 500 ft
< 800m
< 200 ft
Symboles :   Orages  Brouillard  Fortes neiges  Fortes précipitations  Vent > 20 kt






- Altitude de l'aérodrome : 5673 ft


KBJC - Rocky Mountain Metropolitan

DERNIER METAR :
  • 110812Z AUTO 33009KT 10SM CLR 22/01 A3031 RMK AO2

METARs EXPIRÉS :
  • 110754Z AUTO 35008KT 10SM CLR 23/00 A3030 RMK AO2
  • 110730Z AUTO 03014KT 10SM CLR 25/M02 A3028 RMK AO2
  • 110712Z AUTO 01008KT 10SM CLR 26/M05 A3026 RMK AO2
  • 110653Z AUTO 34010KT 10SM CLR 25/M05 A3024 RMK AO2
  • 110630Z AUTO 04008KT 10SM CLR 26/M05 A3023 RMK AO2
  • 110612Z AUTO 29013KT 10SM CLR 27/M07 A3021 RMK AO2
  • 110554Z AUTO 29014KT 10SM CLR 27/M07 A3021 RMK AO2
  • 110530Z AUTO 29014KT 10SM CLR 28/M06 A3020 RMK AO2

TAF KBJC
Valide du 11 à 07h jusqu'au 12 à 06h UTC


110705Z 1107/1206 34009KT P6SM FEW120
FM110800 03008KT P6SM FEW220
FM111500 08006KT P6SM SCT220
FM112000 11010KT P6SM FEW100 SCT200
FM120100 14008KT P6SM SCT200
FIR KZDV / Amérique du Nord



MET'MAP, la Météo Aéronautique d'un coup d'oeil ! - Copyright ORBIFLY Décembre 2007 - Disclaimer

ORBIFLY MET'MAP TEAM :

Programmation & Développement : Alexandra Zaïnal
Sur une idée originale de : Baudouin d'Aumeries
Assistance à la programmation : Marc-Olivier Méhu
Soutien technique & logistique : Manuel Goepfert

Contact : metmap@orbifly.com




SOURCES & CREDITS :

   NOAA       Earth
Advisory